Time;durP1;ratioP1;P1;durP2;ratioP2;P2;SDS_P1;SDS_P2;PMS_P1;PMS_P2;Temp;Humidity;BMP_temperature;BMP_pressure;BME280_temperature;BME280_humidity;BME280_pressure;Samples;Min_cycle;Max_cycle;Signal;HPM_P1;HPM_P2
2024/04/17 00:00:47;;;;;;;6.55;3.35;;;;;;;16.21;86.67;91705.13;5474211;26;19994;-72
2024/04/17 00:03:12;;;;;;;11.90;4.55;;;;;;;16.19;87.57;91704.63;5479610;26;19990;-72
2024/04/17 00:05:38;;;;;;;11.88;4.65;;;;;;;16.23;86.92;91713.38;5480945;26;20008;-72
2024/04/17 00:08:04;;;;;;;8.38;3.83;;;;;;;15.78;87.67;91641.19;5480359;26;20017;-72
2024/04/17 00:10:29;;;;;;;9.50;4.38;;;;;;;16.02;87.66;91669.63;5482581;26;20446;-72
2024/04/17 00:12:55;;;;;;;9.68;4.53;;;;;;;16.15;87.91;91693.28;5483651;26;20071;-72
2024/04/17 00:15:20;;;;;;;9.80;4.28;;;;;;;15.94;88.50;91666.91;5479355;26;20342;-72
2024/04/17 00:17:46;;;;;;;10.63;4.45;;;;;;;15.84;88.38;91645.25;5480675;26;20075;-73
2024/04/17 00:20:11;;;;;;;9.77;4.45;;;;;;;15.79;89.05;91631.63;5478354;26;20009;-72
2024/04/17 00:22:36;;;;;;;12.30;4.68;;;;;;;16.06;88.96;91677.59;5479830;26;20039;-72
2024/04/17 00:25:02;;;;;;;9.70;4.93;;;;;;;15.83;89.79;91646.31;5478618;26;20371;-72
2024/04/17 00:27:28;;;;;;;10.55;5.13;;;;;;;15.89;89.36;91639.25;5481561;26;20098;-72
2024/04/17 00:29:53;;;;;;;10.40;5.63;;;;;;;16.02;90.00;91663.69;5471196;26;20001;-72
2024/04/17 00:32:19;;;;;;;8.02;5.22;;;;;;;16.01;90.11;91652.56;5477164;26;20349;-72
2024/04/17 00:34:44;;;;;;;11.27;5.28;;;;;;;16.00;91.10;91658.00;5476907;26;20337;-72
2024/04/17 00:37:10;;;;;;;18.23;5.82;;;;;;;15.99;90.54;91648.72;5483426;26;20010;-72
2024/04/17 00:39:36;;;;;;;11.02;5.72;;;;;;;15.73;89.24;91613.56;5480102;26;20526;-72
2024/04/17 00:42:02;;;;;;;14.65;5.75;;;;;;;15.77;90.57;91606.78;5480319;26;20051;-72
2024/04/17 00:44:27;;;;;;;9.68;5.65;;;;;;;15.62;93.04;91583.72;5483309;26;19998;-72
2024/04/17 00:46:53;;;;;;;10.88;5.40;;;;;;;15.44;94.34;91552.38;5476107;26;20005;-72
2024/04/17 00:49:19;;;;;;;7.75;5.70;;;;;;;15.94;94.09;91610.72;5477342;26;19994;-72
2024/04/17 00:51:46;;;;;;;11.02;6.15;;;;;;;15.83;94.15;91591.94;5482902;26;20005;-72
2024/04/17 00:54:11;;;;;;;9.65;5.22;;;;;;;15.73;95.37;91568.78;5482771;26;20010;-72
2024/04/17 00:56:37;;;;;;;7.43;5.25;;;;;;;16.02;94.55;91602.31;5474964;26;20047;-72
2024/04/17 00:59:04;;;;;;;9.85;5.32;;;;;;;15.82;95.65;91554.16;5476517;26;20426;-72
2024/04/17 01:01:29;;;;;;;9.02;6.10;;;;;;;15.84;97.74;91553.88;5479696;26;20506;-72
2024/04/17 01:03:55;;;;;;;11.98;6.45;;;;;;;16.04;98.56;91581.31;5482675;26;19998;-72
2024/04/17 01:06:20;;;;;;;13.32;6.22;;;;;;;15.76;99.47;91545.72;5481632;26;20349;-73
2024/04/17 01:08:46;;;;;;;11.00;6.43;;;;;;;15.77;99.12;91547.25;5479662;26;20002;-72
2024/04/17 01:11:12;;;;;;;12.55;6.72;;;;;;;15.85;98.83;91561.38;5479245;26;20012;-73
2024/04/17 01:13:37;;;;;;;;;;;;;;;16.13;98.94;91594.38;5482388;26;20078;-73
2024/04/17 01:16:03;;;;;;;9.68;6.10;;;;;;;16.03;99.73;91580.53;5477116;26;20341;-73
2024/04/17 01:18:28;;;;;;;9.52;6.25;;;;;;;16.02;100.00;91578.25;5476037;26;20514;-73
2024/04/17 01:20:54;;;;;;;8.60;6.32;;;;;;;15.91;99.21;91567.22;5481810;26;20002;-74
2024/04/17 01:23:19;;;;;;;10.98;5.90;;;;;;;16.13;98.28;91594.38;5482123;26;20035;-73
2024/04/17 01:25:45;;;;;;;11.43;5.88;;;;;;;16.07;96.67;91578.16;5475608;26;20347;-73
2024/04/17 01:28:10;;;;;;;11.18;6.45;;;;;;;15.76;98.30;91537.94;5471877;26;20064;-73
2024/04/17 01:30:36;;;;;;;10.52;5.95;;;;;;;15.98;97.11;91556.53;5481796;26;19998;-72
2024/04/17 01:33:01;;;;;;;15.57;6.78;;;;;;;15.81;97.04;91533.72;5478155;26;20422;-73
2024/04/17 01:35:26;;;;;;;9.40;6.32;;;;;;;15.98;95.71;91559.13;5481546;26;20001;-73
2024/04/17 01:37:52;;;;;;;9.27;5.50;;;;;;;15.85;95.43;91532.13;5482027;26;20002;-73
2024/04/17 01:40:17;;;;;;;9.77;6.22;;;;;;;15.94;95.89;91556.34;5477617;26;20503;-73
2024/04/17 01:42:43;;;;;;;9.88;6.18;;;;;;;15.69;95.48;91521.25;5481174;26;20002;-73
2024/04/17 01:45:08;;;;;;;11.55;5.32;;;;;;;15.74;95.23;91516.00;5476234;26;19994;-73
2024/04/17 01:47:35;;;;;;;9.20;5.70;;;;;;;15.69;95.08;91503.13;5482254;26;20006;-73
2024/04/17 01:50:02;;;;;;;10.30;5.35;;;;;;;15.62;94.73;91488.72;5476497;26;20235;-72
2024/04/17 01:52:27;;;;;;;9.88;5.40;;;;;;;15.64;94.44;91488.44;5471404;26;20002;-73
2024/04/17 01:54:53;;;;;;;11.48;5.97;;;;;;;15.71;94.28;91498.41;5481213;26;20338;-73
2024/04/17 01:57:18;;;;;;;8.05;5.47;;;;;;;15.49;94.14;91459.16;5477559;26;19994;-73
2024/04/17 01:59:43;;;;;;;11.93;5.35;;;;;;;15.88;94.37;91508.25;5477478;26;20077;-73
2024/04/17 02:02:09;;;;;;;9.03;4.63;;;;;;;15.65;94.02;91477.03;5481779;26;20009;-73
2024/04/17 02:04:34;;;;;;;9.13;6.03;;;;;;;15.86;93.85;91495.59;5469120;26;20231;-73
2024/04/17 02:06:59;;;;;;;8.40;4.90;;;;;;;15.95;93.75;91495.72;5481356;26;20265;-73
2024/04/17 02:09:25;;;;;;;9.05;5.53;;;;;;;16.00;92.58;91500.81;5478498;26;19994;-73
2024/04/17 02:11:50;;;;;;;9.55;5.63;;;;;;;15.79;92.34;91463.34;5473217;26;20033;-73
2024/04/17 02:14:16;;;;;;;8.50;5.15;;;;;;;15.76;91.93;91460.28;5481110;26;19994;-73
2024/04/17 02:16:41;;;;;;;9.10;5.40;;;;;;;15.88;92.25;91472.75;5481746;26;20014;-72
2024/04/17 02:19:06;;;;;;;7.55;5.18;;;;;;;15.70;92.15;91443.28;5480002;26;20013;-73
2024/04/17 02:21:32;;;;;;;9.18;5.30;;;;;;;15.71;91.77;91457.78;5465486;26;19999;-74
2024/04/17 02:23:57;;;;;;;7.70;5.43;;;;;;;15.66;92.20;91444.94;5469923;26;20039;-73
2024/04/17 02:26:23;;;;;;;9.52;5.63;;;;;;;15.54;91.82;91419.50;5479630;26;20337;-73
2024/04/17 02:28:48;;;;;;;9.45;5.22;;;;;;;15.71;90.91;91434.50;5479663;26;19994;-73
2024/04/17 02:31:14;;;;;;;8.82;5.28;;;;;;;15.69;91.32;91439.16;5478055;26;19998;-74
2024/04/17 02:33:39;;;;;;;12.50;5.50;;;;;;;15.73;91.16;91445.31;5477389;26;19994;-74
2024/04/17 02:36:05;;;;;;;10.55;5.05;;;;;;;15.89;90.36;91458.00;5484332;26;20016;-73
2024/04/17 02:38:31;;;;;;;12.25;5.00;;;;;;;15.81;90.27;91450.88;5484413;26;20013;-73
2024/04/17 02:40:56;;;;;;;8.23;5.45;;;;;;;15.93;90.28;91466.00;5482282;26;20078;-72
2024/04/17 02:43:22;;;;;;;7.57;5.20;;;;;;;15.80;89.35;91439.00;5471207;26;20015;-73
2024/04/17 02:45:47;;;;;;;12.13;5.50;;;;;;;15.74;89.01;91420.22;5484852;26;20002;-72
2024/04/17 02:48:13;;;;;;;10.23;5.38;;;;;;;15.97;88.19;91454.78;5471012;26;20006;-73
2024/04/17 02:50:41;;;;;;;8.60;5.72;;;;;;;15.81;88.32;91428.38;5483956;26;19998;-73
2024/04/17 02:53:07;;;;;;;9.75;4.95;;;;;;;15.90;88.20;91449.19;5480285;26;20437;-73
2024/04/17 02:55:32;;;;;;;12.50;5.85;;;;;;;15.68;88.32;91409.16;5484268;26;20009;-72
2024/04/17 02:57:58;;;;;;;8.93;5.55;;;;;;;15.92;88.44;91447.06;5471162;26;19999;-73
2024/04/17 03:00:25;;;;;;;9.73;5.05;;;;;;;15.82;88.37;91434.28;5468798;26;20601;-73
2024/04/17 03:02:50;;;;;;;9.27;5.88;;;;;;;15.98;89.32;91442.59;5483627;26;20034;-72
2024/04/17 03:05:15;;;;;;;7.05;4.75;;;;;;;15.88;89.11;91440.94;5483695;26;19998;-72
2024/04/17 03:07:44;;;;;;;9.45;5.25;;;;;;;15.89;88.98;91456.16;5483577;26;20033;-72
2024/04/17 03:10:10;;;;;;;8.55;5.50;;;;;;;15.60;90.49;91420.19;5475119;26;20006;-72
2024/04/17 03:12:35;;;;;;;11.20;6.03;;;;;;;15.80;92.14;91452.72;5479509;26;20070;-73
2024/04/17 03:15:01;;;;;;;15.45;6.22;;;;;;;15.86;93.95;91456.75;5482467;26;19998;-73
2024/04/17 03:17:26;;;;;;;9.15;5.65;;;;;;;15.70;93.49;91427.00;5476630;26;19998;-73
2024/04/17 03:19:52;;;;;;;11.43;5.75;;;;;;;15.69;95.69;91434.00;5483075;26;20063;-73
2024/04/17 03:22:17;;;;;;;8.27;6.25;;;;;;;15.34;96.41;91395.50;5484400;26;20002;-72
2024/04/17 03:24:43;;;;;;;12.80;5.57;;;;;;;15.49;96.82;91425.53;5479891;26;20458;-72
2024/04/17 03:27:08;;;;;;;12.43;6.47;;;;;;;15.31;96.91;91396.06;5468499;26;20001;-72
2024/04/17 03:29:34;;;;;;;9.52;5.72;;;;;;;15.35;97.98;91406.59;5478537;26;19998;-73
2024/04/17 03:32:05;;;;;;;13.15;5.50;;;;;;;15.36;97.33;91415.91;5483565;26;20006;-72
2024/04/17 03:34:30;;;;;;;17.13;5.78;;;;;;;15.52;96.93;91457.06;5480442;26;20342;-72
2024/04/17 03:36:56;;;;;;;11.02;6.28;;;;;;;15.42;98.01;91435.47;5483105;26;20005;-72
2024/04/17 03:39:21;;;;;;;10.63;5.95;;;;;;;15.44;98.76;91451.47;5483336;26;19994;-73
2024/04/17 03:41:47;;;;;;;13.60;5.85;;;;;;;14.93;100.00;91378.78;5483757;26;19994;-74
2024/04/17 03:44:13;;;;;;;12.10;6.10;;;;;;;15.34;100.00;91438.69;5473288;26;20454;-74
2024/04/17 03:46:39;;;;;;;9.30;5.70;;;;;;;15.31;100.00;91449.59;5483365;26;20010;-74
2024/04/17 03:49:07;;;;;;;13.57;5.70;;;;;;;15.14;100.00;91426.84;5482074;26;20052;-73
2024/04/17 03:51:33;;;;;;;12.13;5.75;;;;;;;15.25;100.00;91456.69;5472879;26;19998;-72
2024/04/17 03:53:58;;;;;;;10.35;5.32;;;;;;;14.92;100.00;91413.47;5455100;26;19998;-73
2024/04/17 03:56:24;;;;;;;11.05;5.93;;;;;;;15.00;100.00;91424.97;5476821;26;20002;-73
2024/04/17 03:58:49;;;;;;;10.57;5.00;;;;;;;15.27;99.78;91464.91;5471581;26;19998;-73
2024/04/17 04:01:15;;;;;;;10.73;5.72;;;;;;;15.21;100.00;91451.31;5481581;26;20686;-73
2024/04/17 04:03:40;;;;;;;8.60;5.00;;;;;;;15.18;99.74;91446.69;5474498;26;20102;-73
2024/04/17 04:06:05;;;;;;;11.05;4.65;;;;;;;15.27;99.68;91446.06;5480905;26;19994;-73
2024/04/17 04:08:31;;;;;;;7.22;4.93;;;;;;;15.30;99.58;91464.38;5483437;26;20013;-74
2024/04/17 04:10:57;;;;;;;12.23;5.80;;;;;;;15.27;99.44;91467.50;5474725;26;19995;-73
2024/04/17 04:13:22;;;;;;;10.13;5.32;;;;;;;15.15;100.00;91438.72;5473089;26;20062;-73
2024/04/17 04:15:51;;;;;;;12.50;5.28;;;;;;;15.35;100.00;91474.63;5482782;26;19994;-73
2024/04/17 04:18:17;;;;;;;12.60;5.00;;;;;;;15.34;99.90;91474.91;5477839;26;21543;-74
2024/04/17 04:20:42;;;;;;;10.32;4.80;;;;;;;15.08;99.62;91434.69;5482690;26;20026;-74
2024/04/17 04:23:08;;;;;;;8.48;4.95;;;;;;;15.48;98.47;91480.91;5482714;26;20071;-73
2024/04/17 04:25:33;;;;;;;12.68;4.93;;;;;;;15.36;98.38;91478.75;5479332;26;20003;-72
2024/04/17 04:27:59;;;;;;;7.45;4.22;;;;;;;15.38;97.91;91464.78;5477397;26;20006;-72
2024/04/17 04:30:24;;;;;;;9.10;3.90;;;;;;;15.06;98.48;91417.91;5472724;26;20017;-73
2024/04/17 04:32:50;;;;;;;8.02;4.80;;;;;;;15.01;100.00;91421.34;5477910;26;20006;-72
2024/04/17 04:35:15;;;;;;;10.73;5.28;;;;;;;14.92;100.00;91428.19;5482250;26;20008;-72
2024/04/17 04:37:41;;;;;;;10.18;4.82;;;;;;;14.95;100.00;91432.81;5474564;26;19994;-72
2024/04/17 04:40:07;;;;;;;10.57;5.68;;;;;;;15.20;100.00;91485.19;5478164;26;20410;-72
2024/04/17 04:42:32;;;;;;;9.65;5.15;;;;;;;15.17;100.00;91476.19;5481452;26;20035;-72
2024/04/17 04:44:58;;;;;;;12.75;5.15;;;;;;;14.95;100.00;91458.66;5477548;26;20351;-72
2024/04/17 04:47:23;;;;;;;12.90;5.72;;;;;;;14.91;100.00;91455.09;5480943;26;20009;-73
2024/04/17 04:49:49;;;;;;;6.90;4.85;;;;;;;14.74;100.00;91450.38;5481075;26;20002;-74
2024/04/17 04:52:14;;;;;;;9.68;4.63;;;;;;;14.82;100.00;91481.56;5475805;26;20355;-74
2024/04/17 04:54:40;;;;;;;9.90;4.82;;;;;;;14.62;100.00;91456.72;5482462;26;19998;-74
2024/04/17 04:57:05;;;;;;;10.68;5.47;;;;;;;14.66;100.00;91487.94;5478669;26;20037;-74
2024/04/17 04:59:31;;;;;;;15.10;5.22;;;;;;;14.40;100.00;91465.00;5475847;26;20002;-76
2024/04/17 05:01:56;;;;;;;8.27;5.13;;;;;;;14.67;100.00;91505.75;5482206;26;19994;-76
2024/04/17 05:04:22;;;;;;;8.07;4.75;;;;;;;14.60;100.00;91496.78;5470803;26;20009;-75
2024/04/17 05:06:49;;;;;;;13.40;5.72;;;;;;;14.62;100.00;91500.63;5480238;26;19998;-75
2024/04/17 05:09:14;;;;;;;9.77;5.22;;;;;;;14.54;100.00;91483.19;5477804;26;20047;-75
2024/04/17 05:11:40;;;;;;;8.85;5.55;;;;;;;14.39;100.00;91482.28;5478185;26;20010;-74
2024/04/17 05:14:05;;;;;;;8.55;5.60;;;;;;;14.18;100.00;91455.16;5477531;26;20011;-74
2024/04/17 05:16:31;;;;;;;10.70;5.75;;;;;;;14.32;100.00;91481.09;5481409;26;20009;-75
2024/04/17 05:18:56;;;;;;;11.55;6.13;;;;;;;13.97;100.00;91455.34;5481983;26;20024;-76
2024/04/17 05:21:23;;;;;;;10.32;5.63;;;;;;;14.09;100.00;91479.00;5475967;26;19994;-75
2024/04/17 05:23:48;;;;;;;14.13;6.30;;;;;;;13.75;100.00;91428.22;5482795;26;20355;-76
2024/04/17 05:26:14;;;;;;;10.82;6.15;;;;;;;14.00;100.00;91460.75;5476810;26;20002;-75
2024/04/17 05:28:39;;;;;;;11.77;5.95;;;;;;;13.89;100.00;91447.19;5471112;26;20377;-75
2024/04/17 05:31:04;;;;;;;10.05;6.18;;;;;;;13.78;100.00;91448.31;5483144;25;20090;-75
2024/04/17 05:33:31;;;;;;;11.93;6.30;;;;;;;14.20;100.00;91492.56;5485444;26;20009;-76
2024/04/17 05:35:56;;;;;;;;;;;;;;;14.26;100.00;91496.63;5488770;26;20008;-77
2024/04/17 05:38:22;;;;;;;10.88;6.43;;;;;;;13.93;100.00;91449.22;5487207;26;20264;-76
2024/04/17 05:40:48;;;;;;;14.63;6.00;;;;;;;14.01;100.00;91456.34;5456402;26;20343;-76
2024/04/17 05:43:17;;;;;;;12.95;5.22;;;;;;;13.95;100.00;91454.88;5475672;26;20046;-76
2024/04/17 05:45:44;;;;;;;9.82;5.30;;;;;;;13.96;100.00;91443.50;5496438;26;20024;-76
2024/04/17 05:48:10;;;;;;;7.60;5.40;;;;;;;13.93;100.00;91437.06;5499184;25;20012;-76
2024/04/17 05:50:37;;;;;;;7.55;5.35;;;;;;;14.17;100.00;91464.72;5505766;25;20001;-76
2024/04/17 05:53:03;;;;;;;8.35;4.80;;;;;;;13.94;100.00;91417.19;5487154;26;20442;-76
2024/04/17 05:55:29;;;;;;;10.60;5.85;;;;;;;13.73;100.00;91405.28;5511383;25;20001;-76
2024/04/17 05:57:54;;;;;;;;;;;;;;;14.24;100.00;91475.50;5495024;25;19994;-75
2024/04/17 06:00:20;;;;;;;10.40;5.97;;;;;;;13.98;100.00;91425.94;5475943;26;19925;-76
2024/04/17 06:02:46;;;;;;;;;;;;;;;14.26;100.00;91491.47;5496725;25;20009;-75
2024/04/17 06:05:11;;;;;;;8.98;6.60;;;;;;;14.10;100.00;91466.84;5500706;26;19924;-75
2024/04/17 06:07:40;;;;;;;8.57;5.85;;;;;;;14.15;100.00;91464.22;5490097;26;20021;-75
2024/04/17 06:10:06;;;;;;;10.40;6.63;;;;;;;13.94;100.00;91402.50;5479105;26;20083;-76
2024/04/17 06:12:32;;;;;;;10.23;7.05;;;;;;;14.07;100.00;91420.94;5487611;26;20002;-75
2024/04/17 06:14:57;;;;;;;13.23;6.43;;;;;;;14.04;100.00;91411.94;5494580;26;19998;-75
2024/04/17 06:17:23;;;;;;;11.50;7.07;;;;;;;14.26;100.00;91447.56;5493775;26;20322;-75
2024/04/17 06:19:48;;;;;;;10.15;6.13;;;;;;;14.25;100.00;91447.84;5487697;26;20045;-76
2024/04/17 06:22:15;;;;;;;10.57;6.45;;;;;;;14.07;100.00;91419.13;5514296;26;19994;-75
2024/04/17 06:24:41;;;;;;;9.05;6.65;;;;;;;14.30;100.00;91453.72;5502874;26;19998;-75
2024/04/17 06:27:06;;;;;;;11.10;6.30;;;;;;;14.12;100.00;91420.88;5485617;26;20012;-75
2024/04/17 06:29:32;;;;;;;11.10;6.57;;;;;;;14.24;100.00;91426.44;5473770;26;19999;-76
2024/04/17 06:31:58;;;;;;;;;;;;;;;14.43;100.00;91457.47;5502193;25;20038;-75
2024/04/17 06:34:24;;;;;;;10.80;6.88;;;;;;;14.37;100.00;91455.19;5497605;26;19924;-75
2024/04/17 06:36:49;;;;;;;13.70;7.00;;;;;;;14.24;100.00;91434.16;5490462;26;20005;-74
2024/04/17 06:39:15;;;;;;;11.38;6.57;;;;;;;14.40;100.00;91442.50;5490071;26;20363;-75
2024/04/17 06:41:40;;;;;;;9.10;6.18;;;;;;;14.16;100.00;91424.44;5493053;25;19998;-75
2024/04/17 06:44:06;;;;;;;10.23;6.55;;;;;;;14.41;100.00;91459.53;5510014;26;20005;-76
2024/04/17 06:46:31;;;;;;;11.68;6.65;;;;;;;14.18;100.00;91409.47;5496410;25;20002;-75
2024/04/17 06:48:57;;;;;;;10.82;5.95;;;;;;;14.03;100.00;91382.75;5497659;25;20009;-76
2024/04/17 06:51:22;;;;;;;10.75;5.78;;;;;;;14.13;100.00;91391.44;5508304;25;20465;-75
2024/04/17 06:53:47;;;;;;;8.27;5.50;;;;;;;14.39;100.00;91419.53;5508453;25;20013;-76
2024/04/17 06:56:13;;;;;;;15.75;5.82;;;;;;;14.10;100.00;91394.56;5492914;25;20022;-76
2024/04/17 06:58:38;;;;;;;9.25;5.13;;;;;;;14.30;100.00;91422.72;5487855;25;20008;-76
2024/04/17 07:01:04;;;;;;;10.43;4.53;;;;;;;14.25;100.00;91427.97;5501234;25;20001;-76
2024/04/17 07:03:29;;;;;;;8.38;4.85;;;;;;;13.78;100.00;91378.66;5493559;25;19994;-77
2024/04/17 07:06:02;;;;;;;9.98;4.68;;;;;;;14.30;100.00;91438.22;5503705;25;20008;-76
2024/04/17 07:08:28;;;;;;;11.02;4.70;;;;;;;14.26;100.00;91423.56;5486076;26;20846;-77
2024/04/17 07:10:53;;;;;;;7.65;4.05;;;;;;;14.10;100.00;91397.91;5494992;25;20489;-76
2024/04/17 07:13:19;;;;;;;10.07;4.00;;;;;;;14.26;100.00;91426.91;5489870;26;20021;-76
2024/04/17 07:15:44;;;;;;;6.65;3.83;;;;;;;14.11;100.00;91409.78;5510736;25;19994;-76
2024/04/17 07:18:10;;;;;;;7.47;3.60;;;;;;;14.09;100.00;91418.84;5494034;26;20345;-77
2024/04/17 07:20:35;;;;;;;9.38;4.53;;;;;;;14.37;100.00;91440.50;5504688;25;20073;-76
2024/04/17 07:23:01;;;;;;;7.70;3.47;;;;;;;14.25;100.00;91429.75;5483121;25;19990;-76
2024/04/17 07:25:28;;;;;;;4.35;3.13;;;;;;;14.05;100.00;91418.63;5494193;26;19989;-76
2024/04/17 07:27:54;;;;;;;5.60;3.20;;;;;;;14.30;100.00;91455.53;5498772;25;20010;-76
2024/04/17 07:30:19;;;;;;;5.35;3.63;;;;;;;14.25;100.00;91450.41;5486692;26;20377;-76
2024/04/17 07:32:45;;;;;;;7.03;3.33;;;;;;;14.35;100.00;91467.63;5488875;26;20001;-76
2024/04/17 07:35:10;;;;;;;4.65;3.10;;;;;;;14.14;100.00;91419.56;5495490;26;20604;-76
2024/04/17 07:37:36;;;;;;;4.30;2.35;;;;;;;14.19;100.00;91433.44;5485421;26;20034;-76
2024/04/17 07:40:02;;;;;;;4.82;1.98;;;;;;;13.93;100.00;91387.28;5513309;26;19993;-75
2024/04/17 07:42:28;;;;;;;4.60;2.42;;;;;;;14.11;100.00;91398.69;5501066;25;19997;-76
2024/04/17 07:44:53;;;;;;;3.00;1.88;;;;;;;14.18;100.00;91403.50;5481277;26;20341;-75
2024/04/17 07:47:19;;;;;;;7.95;2.38;;;;;;;14.33;100.00;91408.50;5489926;26;20009;-75
2024/04/17 07:49:44;;;;;;;4.68;2.15;;;;;;;14.41;100.00;91399.38;5507174;26;20400;-74
2024/04/17 07:52:10;;;;;;;3.92;2.17;;;;;;;14.34;100.00;91396.38;5488120;25;20022;-76
2024/04/17 07:54:35;;;;;;;3.92;1.90;;;;;;;14.43;100.00;91385.13;5513288;25;20022;-75
2024/04/17 07:57:01;;;;;;;2.78;1.42;;;;;;;14.52;100.00;91407.75;5508698;25;20082;-76
2024/04/17 07:59:26;;;;;;;2.20;1.10;;;;;;;14.79;100.00;91430.44;5496332;26;20330;-76
2024/04/17 08:01:52;;;;;;;2.63;1.35;;;;;;;14.97;100.00;91433.28;5488774;26;20069;-76
2024/04/17 08:04:17;;;;;;;3.60;1.70;;;;;;;15.13;100.00;91415.72;5509226;25;20005;-75
2024/04/17 08:06:43;;;;;;;7.80;1.85;;;;;;;15.00;100.00;91393.94;5502377;26;19994;-76
2024/04/17 08:09:09;;;;;;;4.75;2.15;;;;;;;15.22;100.00;91423.59;5492087;26;20009;-76
2024/04/17 08:11:36;;;;;;;4.97;1.40;;;;;;;15.27;100.00;91404.69;5507558;25;20002;-76
2024/04/17 08:14:02;;;;;;;3.63;1.80;;;;;;;14.96;100.00;91369.72;5497215;25;20776;-76
2024/04/17 08:16:28;;;;;;;3.80;1.60;;;;;;;15.16;100.00;91384.13;5488226;26;20010;-76
2024/04/17 08:18:53;;;;;;;4.65;2.17;;;;;;;15.08;100.00;91377.00;5483157;26;20868;-75
2024/04/17 08:21:20;;;;;;;2.95;1.73;;;;;;;15.36;100.00;91408.91;5493673;26;20005;-76
2024/04/17 08:23:46;;;;;;;4.15;1.58;;;;;;;15.30;100.00;91393.75;5488278;25;19994;-76
2024/04/17 08:26:11;;;;;;;4.00;1.80;;;;;;;15.39;100.00;91397.22;5495994;26;20035;-76
2024/04/17 08:28:37;;;;;;;5.57;1.75;;;;;;;15.46;100.00;91405.38;5482682;25;19994;-76
2024/04/17 08:31:02;;;;;;;4.15;1.80;;;;;;;15.03;100.00;91353.81;5497904;26;20016;-76
2024/04/17 08:33:28;;;;;;;3.90;1.90;;;;;;;15.02;100.00;91347.91;5490900;26;19998;-76
2024/04/17 08:35:53;;;;;;;5.95;2.22;;;;;;;14.83;100.00;91314.31;5495442;25;20047;-76
2024/04/17 08:38:19;;;;;;;3.88;2.00;;;;;;;15.47;100.00;91385.47;5492164;25;20816;-76
2024/04/17 08:40:45;;;;;;;5.57;2.65;;;;;;;15.45;100.00;91380.56;5493442;25;20010;-76
2024/04/17 08:43:23;;;;;;;8.18;2.63;;;;;;;15.19;100.00;91344.00;5507197;25;20021;-76
2024/04/17 08:45:51;;;;;;;5.70;2.58;;;;;;;15.43;100.00;91382.69;5498725;26;20431;-77
2024/04/17 08:48:18;;;;;;;4.82;2.38;;;;;;;15.46;100.00;91386.53;5499307;26;20330;-77
2024/04/17 08:50:44;;;;;;;5.97;2.47;;;;;;;15.23;100.00;91340.56;5473007;25;19994;-76
2024/04/17 08:53:11;;;;;;;4.03;2.67;;;;;;;15.56;100.00;91378.56;5492050;26;20005;-76
2024/04/17 08:55:38;;;;;;;5.40;2.85;;;;;;;15.38;100.00;91343.19;5487052;25;20005;-77
2024/04/17 08:58:04;;;;;;;5.43;2.05;;;;;;;15.50;100.00;91356.41;5486680;26;19994;-76
2024/04/17 09:00:30;;;;;;;4.18;2.17;;;;;;;15.52;100.00;91332.84;5482978;26;20460;-76
2024/04/17 09:02:57;;;;;;;5.25;2.72;;;;;;;15.79;100.00;91350.22;5489956;26;20014;-76
2024/04/17 09:05:27;;;;;;;6.75;2.85;;;;;;;15.71;100.00;91317.25;5487316;26;20450;-77
2024/04/17 09:07:53;;;;;;;9.10;3.33;;;;;;;15.54;100.00;91277.16;5487394;26;20001;-76
2024/04/17 09:10:19;;;;;;;8.20;3.95;;;;;;;15.86;100.00;91288.47;5486221;26;20521;-76
2024/04/17 09:12:45;;;;;;;8.10;3.75;;;;;;;16.36;100.00;91327.66;5490975;26;20446;-77
2024/04/17 09:15:15;;;;;;;6.78;2.95;;;;;;;16.62;100.00;91338.22;5486486;26;19993;-76
2024/04/17 09:17:41;;;;;;;6.10;2.70;;;;;;;16.83;100.00;91335.97;5489799;25;20014;-76
2024/04/17 09:20:07;;;;;;;4.35;2.97;;;;;;;16.93;100.00;91326.41;5509158;25;20107;-77
2024/04/17 09:22:34;;;;;;;9.35;2.88;;;;;;;16.92;100.00;91330.06;5481606;26;20083;-76
2024/04/17 09:25:00;;;;;;;3.85;2.60;;;;;;;16.75;100.00;91297.75;5504146;26;20054;-76
2024/04/17 09:27:26;;;;;;;8.48;3.17;;;;;;;16.97;100.00;91329.94;5477812;26;19998;-75
2024/04/17 09:29:51;;;;;;;6.13;2.90;;;;;;;16.74;100.00;91311.78;5488026;26;20002;-75
2024/04/17 09:32:18;;;;;;;5.72;2.60;;;;;;;16.71;100.00;91299.41;5488149;26;20010;-76
2024/04/17 09:34:44;;;;;;;6.20;3.13;;;;;;;17.01;100.00;91328.28;5488417;25;20485;-76
2024/04/17 09:37:11;;;;;;;7.70;3.22;;;;;;;17.04;100.00;91329.56;5486674;26;20005;-76
2024/04/17 09:39:37;;;;;;;7.95;4.40;;;;;;;17.14;100.00;91333.72;5492492;26;19994;-76
2024/04/17 09:42:06;;;;;;;6.20;3.13;;;;;;;17.07;100.00;91305.59;5487427;25;19998;-76
2024/04/17 09:44:39;;;;;;;6.65;3.08;;;;;;;17.29;100.00;91322.97;5491611;25;20437;-76
2024/04/17 09:47:10;;;;;;;8.88;3.78;;;;;;;17.35;100.00;91341.78;5486989;26;19993;-76
2024/04/17 09:49:38;;;;;;;8.75;3.92;;;;;;;17.18;100.00;91308.72;5484100;26;20001;-76
2024/04/17 09:52:05;;;;;;;8.60;3.53;;;;;;;17.58;100.00;91354.72;5488260;26;20001;-76
2024/04/17 09:54:31;;;;;;;7.88;3.70;;;;;;;17.35;100.00;91311.41;5484194;26;20067;-76
2024/04/17 09:56:57;;;;;;;11.50;4.63;;;;;;;17.36;100.00;91310.34;5487246;26;20006;-75
2024/04/17 09:59:23;;;;;;;7.22;4.13;;;;;;;17.60;100.00;91318.84;5490832;26;20034;-75
2024/04/17 10:01:50;;;;;;;7.20;3.55;;;;;;;17.92;100.00;91332.56;5492845;25;20009;-75
2024/04/17 10:04:17;;;;;;;7.10;3.63;;;;;;;17.95;100.00;91315.59;5487391;26;20012;-75
2024/04/17 10:06:42;;;;;;;;;;;;;;;18.18;100.00;91316.28;5492494;25;20009;-75
2024/04/17 10:09:15;;;;;;;10.80;4.35;;;;;;;18.26;100.00;91292.16;5481990;26;20275;-75
2024/04/17 10:11:41;;;;;;;9.18;3.35;;;;;;;18.26;100.00;91265.38;5485042;26;20082;-75
2024/04/17 10:14:12;;;;;;;10.18;4.03;;;;;;;18.45;100.00;91280.69;5488755;25;20001;-75
2024/04/17 10:16:38;;;;;;;5.53;3.38;;;;;;;18.46;100.00;91278.88;5487846;26;20025;-75
2024/04/17 10:19:04;;;;;;;8.02;4.13;;;;;;;18.50;100.00;91243.38;5479657;26;19998;-75
2024/04/17 10:21:36;;;;;;;10.00;3.15;;;;;;;18.87;100.00;91248.97;5489181;26;20021;-74
2024/04/17 10:24:03;;;;;;;7.68;2.95;;;;;;;19.22;100.00;91287.94;5483678;25;19993;-75
2024/04/17 10:26:45;;;;;;;7.20;2.95;;;;;;;19.20;100.00;91256.28;5486235;25;20044;-75
2024/04/17 10:29:30;;;;;;;7.85;3.33;;;;;;;19.28;99.35;91252.13;5487952;26;20002;-74
2024/04/17 10:31:57;;;;;;;;;;;;;;;19.55;98.19;91283.25;5488977;26;19997;-75
2024/04/17 10:34:23;;;;;;;5.68;2.67;;;;;;;19.28;98.26;91272.16;5495052;26;19935;-75
2024/04/17 10:36:53;;;;;;;8.00;2.80;;;;;;;19.01;99.49;91240.22;5499932;26;20008;-75
2024/04/17 10:39:20;;;;;;;5.88;2.53;;;;;;;19.19;98.71;91259.19;5484028;26;20012;-75
2024/04/17 10:41:46;;;;;;;8.68;2.70;;;;;;;19.11;100.00;91228.75;5489044;26;20006;-75
2024/04/17 10:44:12;;;;;;;;;;;;;;;19.46;97.20;91271.06;5488924;26;20363;-75
2024/04/17 10:46:38;;;;;;;6.45;2.13;;;;;;;19.15;94.84;91230.41;5484885;26;19953;-75
2024/04/17 10:49:03;;;;;;;7.53;2.08;;;;;;;19.38;97.60;91232.03;5486369;26;19997;-74
2024/04/17 10:51:29;;;;;;;;;;;;;;;19.68;94.85;91258.09;5488824;26;20456;-75
2024/04/17 10:53:55;;;;;;;9.73;2.10;;;;;;;19.68;93.66;91237.25;5492587;26;19930;-75
2024/04/17 10:56:22;;;;;;;6.55;2.10;;;;;;;19.34;92.07;91216.25;5493260;26;20001;-75
2024/04/17 10:58:47;;;;;;;5.18;2.05;;;;;;;19.29;92.35;91196.38;5489826;26;19997;-75
2024/04/17 11:01:13;;;;;;;6.32;1.90;;;;;;;19.54;90.73;91209.59;5492575;25;20728;-74
2024/04/17 11:03:38;;;;;;;5.43;1.90;;;;;;;19.02;88.60;91127.28;5496390;26;19997;-75
2024/04/17 11:06:08;;;;;;;5.75;2.28;;;;;;;19.44;88.90;91191.72;5489765;26;20002;-75
2024/04/17 11:08:39;;;;;;;7.28;1.70;;;;;;;19.70;88.50;91201.22;5489776;26;20803;-75
2024/04/17 11:11:05;;;;;;;9.18;2.10;;;;;;;19.59;87.21;91216.47;5488545;26;20057;-75
2024/04/17 11:13:30;;;;;;;5.75;1.92;;;;;;;19.65;87.23;91222.25;5494928;25;19994;-75
2024/04/17 11:15:55;;;;;;;;;;;;;;;19.59;84.14;91219.06;5491633;26;20062;-75
2024/04/17 11:18:23;;;;;;;8.30;1.73;;;;;;;19.54;86.87;91214.03;5489558;26;19928;-75
2024/04/17 11:20:48;;;;;;;8.48;1.88;;;;;;;19.59;84.03;91216.47;5495138;25;20013;-74
2024/04/17 11:23:14;;;;;;;4.80;1.55;;;;;;;19.43;84.26;91203.19;5488970;26;19993;-75